createdAt,value
2019-03-19T00:00:11.365Z,7.13
2019-03-19T00:02:40.673Z,6.20
2019-03-19T00:05:09.963Z,7.73
2019-03-19T00:07:39.306Z,6.87
2019-03-19T00:10:08.883Z,6.57
2019-03-19T00:12:38.295Z,6.50
2019-03-19T00:15:08.530Z,8.07
2019-03-19T00:17:37.809Z,7.20
2019-03-19T00:20:07.660Z,7.07
2019-03-19T00:22:36.949Z,7.17
2019-03-19T00:25:06.654Z,6.73
2019-03-19T00:27:36.019Z,7.23
2019-03-19T00:30:07.653Z,6.80
2019-03-19T00:32:36.963Z,7.47
2019-03-19T00:35:06.776Z,7.57
2019-03-19T00:37:36.117Z,7.53
2019-03-19T00:40:06.203Z,8.13
2019-03-19T00:42:35.480Z,7.27
2019-03-19T00:45:05.129Z,8.27
2019-03-19T00:47:34.481Z,7.30
2019-03-19T00:50:04.362Z,9.17
2019-03-19T00:52:33.726Z,7.20
2019-03-19T00:55:03.065Z,6.83
2019-03-19T00:57:32.418Z,6.67
2019-03-19T01:00:01.783Z,7.10
2019-03-19T01:02:31.118Z,8.13
2019-03-19T01:05:00.429Z,7.87
2019-03-19T01:07:29.719Z,7.20
2019-03-19T01:09:59.048Z,6.90
2019-03-19T01:12:28.349Z,6.83
2019-03-19T01:14:57.673Z,7.10
2019-03-19T01:17:27.017Z,7.30
2019-03-19T01:19:56.449Z,7.20
2019-03-19T01:22:25.732Z,6.77
2019-03-19T01:24:55.117Z,6.97
2019-03-19T01:27:24.426Z,6.87
2019-03-19T01:29:53.726Z,7.47
2019-03-19T01:32:23.113Z,6.90
2019-03-19T01:34:52.474Z,6.57
2019-03-19T01:37:21.843Z,7.80
2019-03-19T01:39:51.311Z,7.10
2019-03-19T01:42:20.584Z,6.87
2019-03-19T01:44:49.887Z,6.70
2019-03-19T01:47:19.210Z,5.93
2019-03-19T01:49:48.550Z,6.20
2019-03-19T01:52:17.866Z,8.27
2019-03-19T01:54:47.250Z,5.70
2019-03-19T01:57:16.578Z,5.80
2019-03-19T01:59:45.960Z,5.57
2019-03-19T02:02:15.289Z,5.50
2019-03-19T02:04:44.669Z,5.30
2019-03-19T02:07:14.200Z,5.93
2019-03-19T02:09:43.652Z,6.17
2019-03-19T02:12:12.985Z,6.37
2019-03-19T02:14:42.329Z,5.70
2019-03-19T02:17:12.745Z,5.67
2019-03-19T02:19:42.751Z,6.27
2019-03-19T02:22:12.143Z,7.00
2019-03-19T02:24:41.469Z,5.63
2019-03-19T02:27:10.764Z,5.63
2019-03-19T02:29:40.161Z,7.37
2019-03-19T02:32:09.507Z,6.43
2019-03-19T02:34:38.787Z,5.77
2019-03-19T02:37:08.130Z,7.37
2019-03-19T02:39:37.509Z,6.20
2019-03-19T02:42:06.871Z,6.17
2019-03-19T02:44:36.230Z,5.83
2019-03-19T02:47:05.970Z,7.53
2019-03-19T02:49:35.313Z,7.70
2019-03-19T02:52:04.743Z,7.67
2019-03-19T02:54:34.026Z,8.27
2019-03-19T02:57:03.362Z,7.57
2019-03-19T02:59:32.712Z,7.80
2019-03-19T03:02:02.135Z,7.77
2019-03-19T03:04:31.541Z,7.67
2019-03-19T03:07:00.902Z,8.93
2019-03-19T03:09:30.182Z,7.33
2019-03-19T03:11:59.596Z,7.37
2019-03-19T03:14:28.972Z,7.10
2019-03-19T03:16:58.409Z,7.13
2019-03-19T03:19:27.711Z,7.50
2019-03-19T03:21:57.070Z,6.43
2019-03-19T03:24:26.442Z,6.70
2019-03-19T03:26:55.849Z,6.97
2019-03-19T03:29:25.198Z,7.33
2019-03-19T03:31:54.658Z,7.47
2019-03-19T03:34:24.046Z,7.30
2019-03-19T03:36:53.327Z,7.83
2019-03-19T03:39:22.749Z,5.87
2019-03-19T03:41:52.108Z,6.47
2019-03-19T03:44:21.409Z,6.80
2019-03-19T03:46:50.815Z,7.43
2019-03-19T03:49:20.170Z,6.43
2019-03-19T03:51:49.578Z,8.40
2019-03-19T03:54:18.937Z,7.20
2019-03-19T03:57:01.415Z,7.53
2019-03-19T03:59:19.326Z,7.03
2019-03-19T04:01:48.691Z,7.00
2019-03-19T04:04:18.030Z,7.07
2019-03-19T04:06:47.445Z,6.80
2019-03-19T04:09:16.725Z,7.03
2019-03-19T04:11:46.071Z,7.57
2019-03-19T04:14:15.435Z,6.80
2019-03-19T04:16:44.799Z,6.57
2019-03-19T04:19:14.087Z,7.97
2019-03-19T04:21:43.542Z,7.40
2019-03-19T04:24:12.903Z,7.50
2019-03-19T04:26:42.237Z,6.97
2019-03-19T04:29:11.568Z,7.40
2019-03-19T04:31:41.017Z,7.23
2019-03-19T04:34:10.375Z,7.73
2019-03-19T04:36:39.729Z,7.80
2019-03-19T04:39:09.389Z,8.30
2019-03-19T04:41:38.685Z,6.93
2019-03-19T04:44:08.033Z,8.70
2019-03-19T04:46:37.400Z,9.10
2019-03-19T04:49:06.792Z,8.87
2019-03-19T04:51:36.084Z,8.27
2019-03-19T04:54:05.418Z,8.33
2019-03-19T04:56:34.830Z,10.37
2019-03-19T04:59:04.125Z,7.60
2019-03-19T05:01:33.494Z,8.50
2019-03-19T05:04:02.817Z,8.50
2019-03-19T05:06:32.297Z,8.40
2019-03-19T05:09:01.621Z,9.30
2019-03-19T05:11:30.942Z,8.37
2019-03-19T05:14:00.259Z,8.13
2019-03-19T05:16:29.588Z,9.00
2019-03-19T05:18:58.870Z,8.77
2019-03-19T05:21:28.215Z,10.00
2019-03-19T05:23:57.630Z,11.67
2019-03-19T05:26:26.977Z,10.90
2019-03-19T05:28:56.269Z,12.57
2019-03-19T05:31:25.568Z,11.80
2019-03-19T05:33:54.917Z,11.23
2019-03-19T05:36:24.282Z,8.63
2019-03-19T05:38:53.613Z,8.67
2019-03-19T05:41:22.937Z,10.27
2019-03-19T05:43:52.315Z,9.67
2019-03-19T05:46:21.685Z,10.47
2019-03-19T05:48:50.963Z,12.60
2019-03-19T05:51:20.314Z,11.87
2019-03-19T05:53:49.737Z,15.27
2019-03-19T05:56:19.064Z,9.53
2019-03-19T05:58:48.393Z,11.33
2019-03-19T06:01:17.679Z,9.93
2019-03-19T06:03:47.018Z,9.70
2019-03-19T06:06:16.405Z,10.30
2019-03-19T06:08:45.689Z,10.67
2019-03-19T06:11:15.657Z,12.43
2019-03-19T06:13:44.992Z,10.80
2019-03-19T06:16:14.321Z,14.13
2019-03-19T06:18:43.685Z,13.03
2019-03-19T06:21:13.105Z,14.87
2019-03-19T06:23:42.409Z,14.53
2019-03-19T06:26:11.717Z,12.60
2019-03-19T06:28:41.074Z,11.03
2019-03-19T06:31:10.434Z,11.73
2019-03-19T06:33:39.836Z,11.70
2019-03-19T06:36:10.145Z,10.57
2019-03-19T06:38:39.526Z,11.47
2019-03-19T06:41:08.917Z,10.63
2019-03-19T06:43:38.282Z,10.03
2019-03-19T06:46:07.621Z,11.43
2019-03-19T06:48:36.894Z,13.37
2019-03-19T06:51:06.233Z,10.27
2019-03-19T06:53:35.541Z,10.10
2019-03-19T06:56:04.916Z,10.43
2019-03-19T06:58:34.281Z,11.73
2019-03-19T07:01:03.685Z,9.57
2019-03-19T07:03:33.054Z,13.60
2019-03-19T07:06:02.377Z,9.87
2019-03-19T07:08:32.702Z,10.27
2019-03-19T07:11:02.062Z,9.97
2019-03-19T07:13:31.401Z,13.03
2019-03-19T07:16:00.823Z,10.23
2019-03-19T07:18:30.171Z,12.30
2019-03-19T07:20:59.520Z,14.00
2019-03-19T07:23:29.020Z,12.23
2019-03-19T07:25:58.405Z,20.30
2019-03-19T07:28:27.826Z,12.13
2019-03-19T07:30:58.214Z,12.37
2019-03-19T07:33:27.564Z,11.30
2019-03-19T07:35:57.013Z,11.77
2019-03-19T07:38:26.400Z,12.83
2019-03-19T07:40:55.826Z,10.90
2019-03-19T07:43:25.333Z,11.43
2019-03-19T07:45:54.690Z,10.33
2019-03-19T07:48:24.133Z,10.43
2019-03-19T07:50:53.672Z,10.30
2019-03-19T07:53:23.005Z,9.43
2019-03-19T07:55:53.486Z,9.30
2019-03-19T07:58:32.805Z,9.37
2019-03-19T08:00:54.715Z,9.50
2019-03-19T08:03:24.145Z,10.67
2019-03-19T08:05:53.457Z,10.90
2019-03-19T08:08:22.817Z,11.40
2019-03-19T08:10:52.188Z,10.50
2019-03-19T08:13:21.542Z,10.30
2019-03-19T08:15:51.047Z,10.30
2019-03-19T08:18:20.391Z,10.20
2019-03-19T08:20:49.757Z,9.97
2019-03-19T08:23:19.053Z,10.70
2019-03-19T08:25:48.458Z,10.60
2019-03-19T08:28:17.827Z,11.13
2019-03-19T08:30:47.268Z,9.77
2019-03-19T08:33:16.598Z,9.53
2019-03-19T08:35:45.974Z,10.37
2019-03-19T08:38:15.361Z,10.37
2019-03-19T08:40:44.674Z,10.20
2019-03-19T08:43:14.044Z,10.13
2019-03-19T08:45:43.438Z,10.53
2019-03-19T08:48:12.733Z,10.63
2019-03-19T08:50:42.083Z,10.27
2019-03-19T08:53:12.481Z,9.97
2019-03-19T08:55:41.813Z,10.10
2019-03-19T08:58:11.218Z,12.13
2019-03-19T09:00:40.549Z,10.10
2019-03-19T09:03:09.922Z,9.73
2019-03-19T09:05:39.315Z,10.00
2019-03-19T09:08:08.660Z,10.70
2019-03-19T09:10:38.013Z,12.10
2019-03-19T09:13:07.365Z,8.47
2019-03-19T09:15:37.744Z,8.40
2019-03-19T09:18:07.153Z,12.17
2019-03-19T09:20:36.534Z,10.17
2019-03-19T09:23:05.962Z,7.17
2019-03-19T09:25:35.454Z,6.73
2019-03-19T09:28:04.927Z,6.67
2019-03-19T09:30:34.365Z,9.80
2019-03-19T09:33:03.695Z,6.53
2019-03-19T09:35:32.975Z,8.90
2019-03-19T09:38:02.253Z,7.10
2019-03-19T09:40:31.654Z,10.93
2019-03-19T09:43:00.964Z,6.67
2019-03-19T09:45:30.402Z,7.80
2019-03-19T09:47:59.708Z,8.87
2019-03-19T09:50:29.053Z,5.53
2019-03-19T09:52:58.362Z,5.17
2019-03-19T09:55:27.750Z,6.40
2019-03-19T09:57:57.185Z,5.17
2019-03-19T10:00:26.517Z,6.17
2019-03-19T10:02:55.814Z,8.37
2019-03-19T10:05:25.092Z,6.23
2019-03-19T10:07:55.686Z,6.73
2019-03-19T10:10:25.593Z,6.50
2019-03-19T10:12:55.130Z,5.73
2019-03-19T10:15:24.531Z,5.70
2019-03-19T10:17:54.426Z,6.07
2019-03-19T10:20:23.750Z,5.20
2019-03-19T10:22:53.128Z,6.33
2019-03-19T10:25:22.485Z,6.27
2019-03-19T10:27:51.785Z,5.03
2019-03-19T10:30:21.454Z,5.77
2019-03-19T10:32:50.793Z,6.90
2019-03-19T10:35:21.253Z,7.23
2019-03-19T10:37:50.594Z,6.60
2019-03-19T10:40:19.967Z,8.93
2019-03-19T10:42:49.871Z,7.60
2019-03-19T10:45:19.717Z,7.67
2019-03-19T10:47:49.115Z,6.03
2019-03-19T10:50:19.690Z,7.00
2019-03-19T10:52:50.158Z,5.80
2019-03-19T10:55:19.581Z,4.87
2019-03-19T10:57:48.987Z,6.73
2019-03-19T11:00:21.913Z,7.47
2019-03-19T11:02:51.637Z,6.17
2019-03-19T11:05:21.994Z,7.13
2019-03-19T11:07:51.386Z,8.93
2019-03-19T11:10:21.822Z,4.80
2019-03-19T11:12:51.194Z,7.50
2019-03-19T11:15:20.587Z,5.47
2019-03-19T11:17:49.921Z,7.50
2019-03-19T11:20:19.261Z,6.20
2019-03-19T11:22:48.662Z,6.77
2019-03-19T11:25:18.134Z,8.33
2019-03-19T11:27:47.572Z,8.37
2019-03-19T11:30:21.325Z,6.93
2019-03-19T11:32:50.663Z,7.73
2019-03-19T11:35:20.416Z,5.87
2019-03-19T11:37:49.776Z,5.17
2019-03-19T11:40:20.041Z,4.83
2019-03-19T11:42:49.846Z,7.03
2019-03-19T11:45:19.584Z,7.63
2019-03-19T11:47:48.942Z,6.87
2019-03-19T11:50:20.082Z,5.37
2019-03-19T11:52:50.366Z,6.53
2019-03-19T11:55:20.820Z,4.73
2019-03-19T11:57:50.593Z,6.73
2019-03-19T12:00:45.350Z,7.10
2019-03-19T12:03:16.419Z,6.47
2019-03-19T12:05:46.829Z,4.67
2019-03-19T12:08:16.164Z,6.37
2019-03-19T12:10:45.601Z,5.27
2019-03-19T12:13:15.176Z,7.20
2019-03-19T12:15:44.694Z,3.70
2019-03-19T12:18:14.096Z,4.37
2019-03-19T12:20:43.645Z,5.30
2019-03-19T12:23:13.024Z,6.17
2019-03-19T12:25:43.471Z,5.63
2019-03-19T12:28:12.855Z,7.33
2019-03-19T12:30:42.281Z,7.37
2019-03-19T12:33:12.661Z,7.67
2019-03-19T12:35:42.077Z,6.90
2019-03-19T12:38:11.485Z,7.17
2019-03-19T12:40:40.941Z,5.77
2019-03-19T12:43:10.323Z,5.30
2019-03-19T12:45:40.725Z,8.40
2019-03-19T12:48:10.078Z,7.20
2019-03-19T12:50:39.469Z,6.17
2019-03-19T12:53:08.830Z,6.77
2019-03-19T12:55:38.334Z,6.07
2019-03-19T12:58:08.734Z,5.40
2019-03-19T13:00:38.229Z,7.13
2019-03-19T13:03:07.538Z,4.50
2019-03-19T13:05:36.965Z,6.67
2019-03-19T13:08:06.405Z,9.77
2019-03-19T13:10:35.848Z,6.83
2019-03-19T13:13:05.996Z,7.27
2019-03-19T13:15:35.406Z,6.63
2019-03-19T13:18:04.955Z,4.23
2019-03-19T13:20:34.417Z,4.67
2019-03-19T13:23:03.857Z,6.37
2019-03-19T13:25:33.190Z,5.03
2019-03-19T13:28:02.637Z,4.67
2019-03-19T13:30:32.065Z,7.30
2019-03-19T13:33:01.377Z,6.77
2019-03-19T13:35:30.745Z,5.03
2019-03-19T13:38:00.117Z,4.77
2019-03-19T13:40:29.555Z,4.67
2019-03-19T13:42:58.957Z,3.73
2019-03-19T13:45:28.357Z,5.40
2019-03-19T13:47:57.765Z,4.37
2019-03-19T13:50:27.097Z,6.33
2019-03-19T13:52:56.447Z,6.30
2019-03-19T13:55:25.733Z,4.33
2019-03-19T13:57:55.089Z,5.13
2019-03-19T14:00:24.399Z,6.50
2019-03-19T14:02:53.680Z,5.90
2019-03-19T14:05:23.009Z,6.43
2019-03-19T14:07:52.344Z,6.27
2019-03-19T14:10:21.629Z,4.83
2019-03-19T14:12:51.033Z,8.93
2019-03-19T14:15:20.445Z,6.50
2019-03-19T14:17:50.005Z,8.57
2019-03-19T14:20:19.927Z,9.07
2019-03-19T14:22:49.212Z,6.03
2019-03-19T14:25:18.898Z,8.30
2019-03-19T14:27:48.295Z,6.80
2019-03-19T14:30:18.493Z,7.90
2019-03-19T14:32:47.983Z,7.70
2019-03-19T14:35:18.385Z,4.57
2019-03-19T14:37:47.813Z,6.37
2019-03-19T14:40:17.558Z,7.50
2019-03-19T14:42:47.389Z,5.37
2019-03-19T14:45:17.781Z,6.80
2019-03-19T14:47:47.557Z,5.57
2019-03-19T14:50:16.909Z,7.13
2019-03-19T14:52:46.231Z,6.60
2019-03-19T14:55:15.518Z,4.23
2019-03-19T14:57:44.839Z,7.03
2019-03-19T15:00:16.026Z,5.87
2019-03-19T15:02:45.880Z,4.60
2019-03-19T15:05:15.977Z,6.90
2019-03-19T15:07:45.719Z,6.30
2019-03-19T15:10:15.652Z,7.37
2019-03-19T15:12:44.960Z,7.10
2019-03-19T15:15:16.180Z,6.07
2019-03-19T15:17:46.738Z,6.63
2019-03-19T15:20:17.758Z,5.77
2019-03-19T15:22:47.074Z,9.10
2019-03-19T15:25:16.377Z,5.60
2019-03-19T15:27:45.739Z,6.77
2019-03-19T15:30:16.041Z,6.53
2019-03-19T15:32:45.465Z,10.30
2019-03-19T15:35:14.761Z,8.50
2019-03-19T15:37:44.566Z,7.63
2019-03-19T15:40:14.166Z,6.20
2019-03-19T15:42:44.296Z,8.37
2019-03-19T15:45:13.763Z,5.87
2019-03-19T15:47:43.155Z,8.67
2019-03-19T15:50:15.745Z,6.47
2019-03-19T15:52:45.075Z,9.57
2019-03-19T15:55:14.897Z,7.53
2019-03-19T15:57:44.341Z,6.37
2019-03-19T16:00:14.861Z,9.60
2019-03-19T16:02:44.233Z,5.53
2019-03-19T16:05:14.037Z,8.17
2019-03-19T16:07:43.828Z,9.67
2019-03-19T16:10:13.621Z,6.23
2019-03-19T16:12:42.969Z,7.87
2019-03-19T16:15:13.449Z,5.60
2019-03-19T16:17:43.201Z,7.20
2019-03-19T16:20:13.945Z,6.77
2019-03-19T16:22:43.279Z,6.17
2019-03-19T16:25:13.118Z,6.37
2019-03-19T16:27:42.400Z,7.93
2019-03-19T16:30:13.665Z,7.27
2019-03-19T16:32:43.354Z,6.87
2019-03-19T16:35:12.949Z,7.73
2019-03-19T16:37:42.346Z,7.73
2019-03-19T16:40:14.604Z,7.33
2019-03-19T16:42:43.917Z,7.93
2019-03-19T16:45:14.149Z,14.13
2019-03-19T16:47:43.505Z,9.23
2019-03-19T16:50:14.392Z,7.30
2019-03-19T16:52:43.736Z,6.77
2019-03-19T16:55:13.813Z,7.07
2019-03-19T16:57:43.185Z,6.83
2019-03-19T17:00:17.207Z,8.90
2019-03-19T17:02:46.612Z,16.77
2019-03-19T17:05:16.757Z,13.63
2019-03-19T17:07:46.284Z,8.83
2019-03-19T17:10:17.253Z,14.53
2019-03-19T17:12:46.671Z,13.10
2019-03-19T17:15:16.550Z,10.60
2019-03-19T17:17:45.965Z,8.27
2019-03-19T17:20:16.039Z,11.23
2019-03-19T17:22:45.331Z,10.63
2019-03-19T17:25:19.576Z,10.73
2019-03-19T17:27:49.155Z,10.53
2019-03-19T17:30:23.162Z,8.87
2019-03-19T17:32:52.904Z,11.87
2019-03-19T17:35:22.765Z,10.67
2019-03-19T17:37:52.054Z,41.17
2019-03-19T17:40:21.401Z,36.70
2019-03-19T17:42:50.770Z,34.87
2019-03-19T17:45:20.107Z,64.93
2019-03-19T17:47:49.423Z,55.50
2019-03-19T17:50:19.593Z,40.47
2019-03-19T17:52:49.799Z,23.47
2019-03-19T17:55:19.226Z,13.17
2019-03-19T17:57:48.589Z,22.10
2019-03-19T18:00:23.846Z,20.67
2019-03-19T18:02:53.561Z,18.90
2019-03-19T18:05:22.846Z,20.23
2019-03-19T18:07:52.183Z,23.43
2019-03-19T18:10:21.569Z,21.23
2019-03-19T18:12:50.905Z,26.67
2019-03-19T18:15:20.253Z,19.17
2019-03-19T18:17:49.585Z,11.03
2019-03-19T18:20:19.765Z,8.43
2019-03-19T18:22:49.094Z,9.23
2019-03-19T18:25:18.538Z,9.67
2019-03-19T18:27:48.051Z,10.17
2019-03-19T18:30:17.839Z,8.20
2019-03-19T18:32:47.257Z,20.40
2019-03-19T18:35:16.603Z,30.80
2019-03-19T18:37:45.993Z,20.80
2019-03-19T18:40:15.833Z,16.73
2019-03-19T18:42:45.656Z,14.43
2019-03-19T18:45:15.033Z,11.10
2019-03-19T18:47:44.514Z,10.80
2019-03-19T18:50:14.199Z,9.13
2019-03-19T18:52:43.598Z,7.53
2019-03-19T18:55:13.336Z,7.50
2019-03-19T18:57:42.697Z,10.03
2019-03-19T19:00:13.722Z,10.83
2019-03-19T19:02:49.651Z,9.37
2019-03-19T19:05:14.281Z,9.70
2019-03-19T19:07:43.637Z,11.60
2019-03-19T19:10:14.457Z,11.27
2019-03-19T19:12:44.171Z,8.13
2019-03-19T19:15:14.884Z,9.33
2019-03-19T19:17:44.282Z,8.30
2019-03-19T19:20:14.858Z,10.07
2019-03-19T19:22:44.149Z,10.37
2019-03-19T19:25:14.341Z,8.80
2019-03-19T19:27:43.729Z,12.53
2019-03-19T19:30:15.956Z,10.33
2019-03-19T19:32:47.602Z,9.13
2019-03-19T19:35:17.072Z,8.97
2019-03-19T19:37:47.534Z,12.27
2019-03-19T19:40:16.928Z,9.17
2019-03-19T19:42:46.535Z,10.57
2019-03-19T19:45:15.886Z,10.30
2019-03-19T19:47:45.710Z,11.60
2019-03-19T19:50:15.933Z,11.07
2019-03-19T19:52:45.326Z,8.73
2019-03-19T19:55:15.345Z,10.40
2019-03-19T19:57:45.424Z,12.27
2019-03-19T20:00:16.218Z,11.17
2019-03-19T20:02:46.932Z,9.77
2019-03-19T20:05:16.306Z,10.50
2019-03-19T20:07:45.996Z,10.70
2019-03-19T20:10:16.962Z,19.57
2019-03-19T20:12:46.390Z,17.93
2019-03-19T20:15:15.881Z,17.93
2019-03-19T20:17:45.363Z,28.50
2019-03-19T20:20:16.286Z,10.60
2019-03-19T20:22:45.621Z,10.63
2019-03-19T20:25:14.961Z,10.73
2019-03-19T20:27:44.306Z,11.30
2019-03-19T20:30:18.358Z,7.70
2019-03-19T20:32:47.769Z,11.13
2019-03-19T20:35:17.122Z,9.40
2019-03-19T20:37:47.620Z,9.37
2019-03-19T20:40:17.589Z,8.53
2019-03-19T20:42:46.900Z,14.30
2019-03-19T20:45:16.757Z,11.70
2019-03-19T20:47:46.074Z,10.87
2019-03-19T20:50:23.802Z,10.43
2019-03-19T20:52:53.234Z,11.63
2019-03-19T20:55:23.031Z,10.20
2019-03-19T20:57:52.393Z,9.93
2019-03-19T21:00:21.789Z,11.67
2019-03-19T21:02:51.138Z,9.13
2019-03-19T21:05:20.523Z,8.53
2019-03-19T21:07:49.997Z,6.83
2019-03-19T21:10:20.049Z,7.07
2019-03-19T21:12:50.906Z,7.80
2019-03-19T21:15:21.971Z,7.83
2019-03-19T21:17:51.245Z,7.83
2019-03-19T21:20:21.161Z,8.40
2019-03-19T21:22:50.586Z,7.57
2019-03-19T21:25:19.914Z,11.10
2019-03-19T21:27:49.272Z,13.47
2019-03-19T21:30:18.807Z,10.10
2019-03-19T21:32:48.505Z,14.70
2019-03-19T21:35:20.401Z,21.20
2019-03-19T21:37:50.248Z,29.57
2019-03-19T21:40:19.942Z,37.27
2019-03-19T21:42:49.752Z,34.97
2019-03-19T21:45:19.178Z,26.00
2019-03-19T21:47:48.457Z,22.93
2019-03-19T21:50:17.816Z,17.20
2019-03-19T21:52:47.161Z,15.53
2019-03-19T21:55:16.489Z,9.83
2019-03-19T21:57:46.272Z,66.60
2019-03-19T22:00:16.777Z,80.67
2019-03-19T22:02:46.242Z,101.63
2019-03-19T22:05:16.139Z,98.67
2019-03-19T22:07:45.587Z,62.20
2019-03-19T22:10:15.313Z,56.10
2019-03-19T22:12:44.921Z,48.23
2019-03-19T22:15:16.075Z,41.20
2019-03-19T22:17:45.429Z,31.97
2019-03-19T22:20:15.849Z,24.43
2019-03-19T22:22:45.517Z,20.90
2019-03-19T22:25:14.906Z,16.73
2019-03-19T22:27:44.421Z,9.80
2019-03-19T22:30:15.217Z,8.47
2019-03-19T22:32:44.729Z,7.83
2019-03-19T22:35:14.081Z,6.97
2019-03-19T22:37:43.973Z,8.23
2019-03-19T22:40:14.597Z,5.80
2019-03-19T22:42:43.917Z,6.77
2019-03-19T22:45:14.391Z,8.33
2019-03-19T22:47:43.782Z,5.23
2019-03-19T22:50:13.763Z,5.70
2019-03-19T22:52:43.551Z,7.03
2019-03-19T22:55:13.395Z,7.07
2019-03-19T22:57:42.826Z,7.97
2019-03-19T23:00:23.206Z,7.97
2019-03-19T23:02:52.494Z,7.47
2019-03-19T23:05:22.526Z,10.03
2019-03-19T23:07:51.817Z,10.77
2019-03-19T23:10:21.151Z,8.33
2019-03-19T23:12:50.463Z,7.37
2019-03-19T23:15:19.814Z,8.17
2019-03-19T23:17:49.159Z,10.17
2019-03-19T23:20:18.506Z,7.40
2019-03-19T23:22:47.858Z,7.00
2019-03-19T23:25:17.434Z,8.47
2019-03-19T23:27:46.792Z,8.47
2019-03-19T23:30:16.145Z,8.07
2019-03-19T23:32:45.477Z,9.80
2019-03-19T23:35:15.127Z,9.30
2019-03-19T23:37:44.455Z,7.67
2019-03-19T23:40:13.706Z,9.23
2019-03-19T23:42:44.363Z,8.13
2019-03-19T23:45:13.723Z,9.90
2019-03-19T23:47:43.166Z,8.17
2019-03-19T23:50:12.773Z,9.20
2019-03-19T23:52:42.508Z,7.60
2019-03-19T23:55:12.266Z,7.63
2019-03-19T23:57:41.605Z,8.87
